createdAt,value
2018-02-19T00:04:33.459Z,88.90
2018-02-19T00:07:02.562Z,89.30
2018-02-19T00:09:31.091Z,89.30
2018-02-19T00:11:59.865Z,89.10
2018-02-19T00:14:28.808Z,88.90
2018-02-19T00:16:57.793Z,89.20
2018-02-19T00:19:26.211Z,89.10
2018-02-19T00:21:55.499Z,87.50
2018-02-19T00:24:24.777Z,87.50
2018-02-19T00:44:11.074Z,86.90
2018-02-19T00:46:39.922Z,86.50
2018-02-19T00:49:07.804Z,86.10
2018-02-19T00:51:36.973Z,85.60
2018-02-19T00:54:05.938Z,85.60
2018-02-19T00:56:34.817Z,85.60
2018-02-19T00:59:04.027Z,85.60
2018-02-19T01:01:32.581Z,85.60
2018-02-19T01:04:01.546Z,85.50
2018-02-19T01:23:47.081Z,84.90
2018-02-19T01:26:18.048Z,85.10
2018-02-19T01:28:46.390Z,85.00
2018-02-19T01:31:15.936Z,85.10
2018-02-19T01:33:44.835Z,84.80
2018-02-19T01:36:13.383Z,84.60
2018-02-19T01:38:42.450Z,84.40
2018-02-19T01:41:10.924Z,84.90
2018-02-19T01:43:40.900Z,85.00
2018-02-19T02:03:26.946Z,84.90
2018-02-19T02:05:56.544Z,84.80
2018-02-19T02:08:25.849Z,84.60
2018-02-19T02:10:54.323Z,84.40
2018-02-19T02:13:23.639Z,84.90
2018-02-19T02:15:53.304Z,85.40
2018-02-19T02:18:23.345Z,85.20
2018-02-19T02:20:52.623Z,85.00
2018-02-19T02:44:09.268Z,84.00
2018-02-19T02:46:37.618Z,84.10
2018-02-19T02:49:07.168Z,84.20
2018-02-19T02:51:36.096Z,84.10
2018-02-19T02:54:05.147Z,84.40
2018-02-19T02:56:34.231Z,84.70
2018-02-19T02:59:03.816Z,85.10
2018-02-19T03:01:32.422Z,85.00
2018-02-19T03:04:02.117Z,85.00
2018-02-19T03:23:47.537Z,84.10
2018-02-19T03:26:16.262Z,84.60
2018-02-19T03:28:45.226Z,84.10
2018-02-19T03:31:15.063Z,83.90
2018-02-19T03:33:43.126Z,84.10
2018-02-19T03:36:11.157Z,84.00
2018-02-19T03:38:39.904Z,84.10
2018-02-19T03:41:08.406Z,84.60
2018-02-19T03:43:36.545Z,84.40
2018-02-19T04:03:23.084Z,84.60
2018-02-19T04:05:52.044Z,84.20
2018-02-19T04:08:21.368Z,84.40
2018-02-19T04:10:49.845Z,84.00
2018-02-19T04:13:18.530Z,84.10
2018-02-19T04:15:47.383Z,83.30
2018-02-19T04:18:17.100Z,83.30
2018-02-19T04:20:45.301Z,83.30
2018-02-19T04:23:14.060Z,83.40
2018-02-19T04:42:58.722Z,83.30
2018-02-19T04:45:27.857Z,83.20
2018-02-19T04:47:56.036Z,83.30
2018-02-19T04:50:24.784Z,83.30
2018-02-19T04:52:53.760Z,82.40
2018-02-19T04:55:22.237Z,82.20
2018-02-19T04:57:51.354Z,82.40
2018-02-19T05:00:21.008Z,82.40
2018-02-19T05:02:50.644Z,82.30
2018-02-19T05:22:37.521Z,83.00
2018-02-19T05:25:07.659Z,82.80
2018-02-19T05:27:37.168Z,82.60
2018-02-19T05:30:06.705Z,83.60
2018-02-19T05:32:36.295Z,82.90
2018-02-19T05:35:05.501Z,83.50
2018-02-19T05:37:34.871Z,82.80
2018-02-19T05:40:03.225Z,83.20
2018-02-19T05:42:31.608Z,82.70
2018-02-19T06:02:17.539Z,81.90
2018-02-19T06:04:46.924Z,81.80
2018-02-19T06:07:16.448Z,81.60
2018-02-19T06:09:45.735Z,82.40
2018-02-19T06:12:14.391Z,82.70
2018-02-19T06:14:45.824Z,82.70
2018-02-19T06:17:15.435Z,82.90
2018-02-19T06:19:44.164Z,82.20
2018-02-19T06:22:12.931Z,81.70
2018-02-19T06:41:57.407Z,83.00
2018-02-19T06:44:25.851Z,82.80
2018-02-19T06:46:54.306Z,82.40
2018-02-19T06:49:23.015Z,82.20
2018-02-19T06:51:52.135Z,82.40
2018-02-19T06:54:21.750Z,82.60
2018-02-19T06:56:50.755Z,82.80
2018-02-19T06:59:19.898Z,82.60
2018-02-19T07:01:48.107Z,81.70
2018-02-19T07:21:32.004Z,80.80
2018-02-19T07:24:00.556Z,81.00
2018-02-19T07:26:29.644Z,80.80
2018-02-19T07:28:58.652Z,80.50
2018-02-19T07:31:27.568Z,80.80
2018-02-19T07:33:57.163Z,80.80
2018-02-19T07:36:25.779Z,81.80
2018-02-19T07:38:54.633Z,81.30
2018-02-19T07:41:23.737Z,81.00
2018-02-19T08:01:09.344Z,80.70
2018-02-19T08:03:38.207Z,79.70
2018-02-19T08:06:07.931Z,79.10
2018-02-19T08:08:36.634Z,78.60
2018-02-19T08:11:06.126Z,79.10
2018-02-19T08:13:35.014Z,79.60
2018-02-19T08:16:04.821Z,78.40
2018-02-19T08:18:34.122Z,78.30
2018-02-19T08:21:03.254Z,78.70
2018-02-19T08:40:50.559Z,79.30
2018-02-19T08:43:19.819Z,79.30
2018-02-19T08:45:48.923Z,79.30
2018-02-19T08:48:17.441Z,78.60
2018-02-19T08:50:46.600Z,78.50
2018-02-19T08:53:14.822Z,78.30
2018-02-19T08:55:44.202Z,78.00
2018-02-19T08:58:13.621Z,78.10
2018-02-19T09:00:41.885Z,77.70
2018-02-19T09:20:26.447Z,76.30
2018-02-19T09:22:55.936Z,76.60
2018-02-19T09:25:23.975Z,77.00
2018-02-19T09:27:52.147Z,77.00
2018-02-19T09:30:21.364Z,77.00
2018-02-19T09:32:51.355Z,76.50
2018-02-19T09:35:20.219Z,76.50
2018-02-19T09:37:48.911Z,77.20
2018-02-19T09:40:18.615Z,76.60
2018-02-19T10:00:02.427Z,75.40
2018-02-19T10:02:31.702Z,74.40
2018-02-19T10:05:00.054Z,74.10
2018-02-19T10:07:28.888Z,74.00
2018-02-19T10:09:57.767Z,74.20
2018-02-19T10:12:27.092Z,74.40
2018-02-19T10:14:55.838Z,74.10
2018-02-19T10:17:24.999Z,73.20
2018-02-19T10:19:54.504Z,73.20
2018-02-19T10:39:39.582Z,71.30
2018-02-19T10:42:08.864Z,70.80
2018-02-19T10:44:36.798Z,69.90
2018-02-19T10:47:05.163Z,69.40
2018-02-19T10:49:34.378Z,69.00
2018-02-19T10:52:04.058Z,67.80
2018-02-19T10:54:33.649Z,68.30
2018-02-19T10:57:02.062Z,69.00
2018-02-19T10:59:31.140Z,68.50
2018-02-19T11:19:16.486Z,68.50
2018-02-19T11:21:45.496Z,68.30
2018-02-19T11:24:14.631Z,68.10
2018-02-19T11:26:43.114Z,69.00
2018-02-19T11:29:11.503Z,67.80
2018-02-19T11:31:40.428Z,66.90
2018-02-19T11:34:10.870Z,67.40
2018-02-19T11:36:39.016Z,67.40
2018-02-19T11:39:07.496Z,67.10
2018-02-19T11:58:52.687Z,68.10
2018-02-19T12:01:21.607Z,68.10
2018-02-19T12:03:50.621Z,68.50
2018-02-19T12:06:18.685Z,68.30
2018-02-19T12:08:47.284Z,68.30
2018-02-19T12:11:15.543Z,68.40
2018-02-19T12:13:43.836Z,68.70
2018-02-19T12:16:14.006Z,68.80
2018-02-19T12:18:43.976Z,68.50
2018-02-19T12:38:29.711Z,67.70
2018-02-19T12:40:58.781Z,67.90
2018-02-19T12:43:28.476Z,67.70
2018-02-19T12:45:57.002Z,67.70
2018-02-19T12:48:25.742Z,68.00
2018-02-19T12:50:54.052Z,68.60
2018-02-19T12:53:22.571Z,68.10
2018-02-19T12:55:52.072Z,68.20
2018-02-19T12:58:21.021Z,68.50
2018-02-19T13:18:07.027Z,69.70
2018-02-19T13:20:35.510Z,69.50
2018-02-19T13:23:04.231Z,69.40
2018-02-19T13:25:34.010Z,69.20
2018-02-19T13:28:02.554Z,69.00
2018-02-19T13:30:30.925Z,70.20
2018-02-19T13:32:59.805Z,70.30
2018-02-19T13:35:28.851Z,70.00
2018-02-19T13:37:58.598Z,69.80
2018-02-19T13:57:42.402Z,68.90
2018-02-19T14:00:11.425Z,69.10
2018-02-19T14:02:39.678Z,69.90
2018-02-19T14:05:09.072Z,69.40
2018-02-19T14:07:37.585Z,69.20
2018-02-19T14:10:06.375Z,69.70
2018-02-19T14:12:35.420Z,69.70
2018-02-19T14:15:05.105Z,69.70
2018-02-19T14:17:34.618Z,70.70
2018-02-19T14:37:18.930Z,72.40
2018-02-19T14:39:47.904Z,71.80
2018-02-19T14:42:15.990Z,71.50
2018-02-19T14:44:44.447Z,71.80
2018-02-19T14:47:14.204Z,71.90
2018-02-19T14:49:43.254Z,71.80
2018-02-19T14:52:11.816Z,72.40
2018-02-19T14:54:40.324Z,72.40
2018-02-19T14:57:09.077Z,72.70
2018-02-19T15:16:54.861Z,72.60
2018-02-19T15:19:23.429Z,73.50
2018-02-19T15:21:53.036Z,73.40
2018-02-19T15:24:22.357Z,73.70
2018-02-19T15:26:50.829Z,72.60
2018-02-19T15:29:19.017Z,72.80
2018-02-19T15:31:47.400Z,73.40
2018-02-19T15:34:16.562Z,74.00
2018-02-19T15:36:44.950Z,73.60
2018-02-19T15:56:32.607Z,73.20
2018-02-19T15:59:02.119Z,74.30
2018-02-19T16:01:30.788Z,73.30
2018-02-19T16:03:59.889Z,72.90
2018-02-19T16:06:28.733Z,72.90
2018-02-19T16:08:57.580Z,73.20
2018-02-19T16:11:26.396Z,73.90
2018-02-19T16:13:56.046Z,73.40
2018-02-19T16:16:24.765Z,73.50
2018-02-19T16:36:11.409Z,75.90
2018-02-19T16:38:41.289Z,76.40
2018-02-19T16:41:09.503Z,76.50
2018-02-19T16:43:38.848Z,76.60
2018-02-19T16:46:07.356Z,78.00
2018-02-19T16:48:36.988Z,77.90
2018-02-19T16:51:06.012Z,77.90
2018-02-19T16:53:34.967Z,78.60
2018-02-19T16:56:03.657Z,77.90
2018-02-19T17:15:47.522Z,79.00
2018-02-19T17:18:16.253Z,79.50
2018-02-19T17:20:45.375Z,79.20
2018-02-19T17:23:13.659Z,79.30
2018-02-19T17:25:42.869Z,79.40
2018-02-19T17:28:11.043Z,79.40
2018-02-19T17:30:40.927Z,79.10
2018-02-19T17:33:10.569Z,79.40
2018-02-19T17:35:40.141Z,79.60
2018-02-19T17:55:24.935Z,80.90
2018-02-19T17:57:54.408Z,80.40
2018-02-19T18:00:23.354Z,80.40
2018-02-19T18:02:51.779Z,80.40
2018-02-19T18:05:21.606Z,80.50
2018-02-19T18:07:51.310Z,80.10
2018-02-19T18:10:20.320Z,80.30
2018-02-19T18:12:48.896Z,80.30
2018-02-19T18:15:17.750Z,80.40
2018-02-19T18:35:03.646Z,80.00
2018-02-19T18:37:32.482Z,80.00
2018-02-19T18:40:01.801Z,80.40
2018-02-19T18:42:32.400Z,80.00
2018-02-19T18:45:02.290Z,79.20
2018-02-19T18:47:31.757Z,79.40
2018-02-19T18:50:01.211Z,79.40
2018-02-19T18:52:30.923Z,79.50
2018-02-19T19:16:09.231Z,81.00
2018-02-19T19:18:38.296Z,80.90
2018-02-19T19:21:06.765Z,81.30
2018-02-19T19:23:35.032Z,81.30
2018-02-19T19:26:06.056Z,81.00
2018-02-19T19:28:34.539Z,81.00
2018-02-19T19:31:04.784Z,80.90
2018-02-19T19:33:33.602Z,80.90
2018-02-19T19:36:02.431Z,80.90
2018-02-19T19:55:48.154Z,81.20
2018-02-19T19:58:17.971Z,81.20
2018-02-19T20:00:46.681Z,81.80
2018-02-19T20:03:16.942Z,82.20
2018-02-19T20:05:45.599Z,82.20
2018-02-19T20:08:14.616Z,82.60
2018-02-19T20:10:44.106Z,82.50
2018-02-19T20:13:12.586Z,82.60
2018-02-19T20:15:41.820Z,82.60
2018-02-19T20:35:26.393Z,82.40
2018-02-19T20:37:55.836Z,82.50
2018-02-19T20:40:25.346Z,82.60
2018-02-19T20:42:53.486Z,82.40
2018-02-19T20:45:22.132Z,82.50
2018-02-19T20:47:50.681Z,82.60
2018-02-19T20:50:18.888Z,82.70
2018-02-19T20:52:47.558Z,82.80
2018-02-19T20:55:16.358Z,82.50
2018-02-19T21:15:01.763Z,83.10
2018-02-19T21:17:30.752Z,83.10
2018-02-19T21:20:00.222Z,83.00
2018-02-19T21:22:28.417Z,82.80
2018-02-19T21:24:57.905Z,82.40
2018-02-19T21:27:26.590Z,82.50
2018-02-19T21:29:56.381Z,82.60
2018-02-19T21:32:25.483Z,82.30
2018-02-19T21:34:53.708Z,82.20
2018-02-19T21:54:39.914Z,82.80
2018-02-19T21:57:07.924Z,82.10
2018-02-19T21:59:36.228Z,82.10
2018-02-19T22:02:04.687Z,82.30
2018-02-19T22:04:33.733Z,82.40
2018-02-19T22:07:02.166Z,82.80
2018-02-19T22:09:30.837Z,83.50
2018-02-19T22:11:59.001Z,83.80
2018-02-19T22:14:27.474Z,83.70
2018-02-19T22:34:14.107Z,83.40
2018-02-19T22:36:42.753Z,83.70
2018-02-19T22:39:12.002Z,83.30
2018-02-19T22:41:41.314Z,83.10
2018-02-19T22:44:09.962Z,83.10
2018-02-19T22:46:38.301Z,83.30
2018-02-19T22:49:06.983Z,83.10
2018-02-19T22:51:35.766Z,83.30
2018-02-19T22:54:04.946Z,83.50
2018-02-19T23:13:49.045Z,82.90
2018-02-19T23:16:19.084Z,83.10
2018-02-19T23:18:47.350Z,82.60
2018-02-19T23:21:16.288Z,82.50
2018-02-19T23:23:44.821Z,82.60
2018-02-19T23:26:14.298Z,82.60
2018-02-19T23:28:43.679Z,82.80
2018-02-19T23:31:12.838Z,82.90
2018-02-19T23:33:43.049Z,82.50
2018-02-19T23:53:27.390Z,82.00
2018-02-19T23:55:56.362Z,82.20
2018-02-19T23:58:24.948Z,81.80
